M I D A S
Marine Information and Data Acquisition System
Tripno 231 of the Zeeleeuw from 2002-03-28 06:57:56 to 2002-03-28 13:16:46
Back to CruiseResearch ActivitiesStationsMapUnderway DataData graphs

EquipmentUnitsComment
TimeDGPSUTC
LatitudeDGPSDM.mWGS84
LongitudeDGPSDM.mWGS84
TemperatureSBE03/SBE38deg celciusITS90
ConductivitySBE21S/mITS90
SalinitySBE21 Practical Salinity Units
ChlorophylAChelsea fluorimeterg/lCalibrated in Aceton
Missing or incorrect values are displayed as -999
Sea surface data collected by the RV Zeeleeuw from 2002-03-28 06:57:56 to 2002-03-28 13:16:46
Time Latitude Longitude Temperature Conductivity Salinity ChlorophylA
2002-03-28 07:00:09 51°13.687 2°55.906 16.160739 0.017233 0.091393  
2002-03-28 07:01:09 51°13.688 2°55.907 16.165657 0.017233 0.091395  
2002-03-28 07:02:10 51°13.689 2°55.906 16.155435 0.017233 0.091398  
2002-03-28 07:03:10 51°13.688 2°55.906 16.15783 0.017233 0.0914  
2002-03-28 07:04:08 51°13.688 2°55.906 16.156034 0.017135 0.0909  
2002-03-28 07:05:05 51°13.688 2°55.906 16.155264 0.017233 0.091407  
2002-03-28 07:06:05 51°13.688 2°55.906 16.156419 0.017233 0.091411  
2002-03-28 07:07:05 51°13.689 2°55.907 16.158643 0.017233 0.091415  
2002-03-28 07:08:05 51°13.689 2°55.906 16.156847 0.017135 0.090914  
2002-03-28 07:09:05 51°13.689 2°55.906 16.162706 0.017135 0.090919  
2002-03-28 07:10:05 51°13.689 2°55.906 16.165742 0.017135 0.090921  
2002-03-28 07:11:05 51°13.688 2°55.905 16.162962 0.017135 0.090924  
2002-03-28 07:12:05 51°13.69 2°55.906 16.16138 0.017135 0.090927  
2002-03-28 07:13:05 51°13.69 2°55.907 16.163005 0.017135 0.09093  
2002-03-28 07:14:05 51°13.691 2°55.907 16.157231 0.017135 0.090933  
2002-03-28 07:15:05 51°13.689 2°55.906 16.150003 0.017135 0.090936  
2002-03-28 07:16:05 51°13.688 2°55.905 16.154409 0.017135 0.090938  
2002-03-28 07:17:05 51°13.689 2°55.905 16.152313 0.017135 0.090941  
2002-03-28 07:18:05 51°13.689 2°55.906 16.1438 0.017135 0.090944  
2002-03-28 07:19:05 51°13.69 2°55.906 16.137982 0.017135 0.090947  
2002-03-28 07:20:05 51°13.69 2°55.906 16.140806 0.017135 0.090949  
2002-03-28 07:21:05 51°13.69 2°55.907 16.146025 0.017135 0.090953  
2002-03-28 07:22:05 51°13.691 2°55.907 16.144143 0.017135 0.090955  
2002-03-28 07:23:05 51°13.691 2°55.907 16.150302 0.017135 0.090959  
2002-03-28 07:24:05 51°13.688 2°55.906 16.148891 0.017135 0.090964  
2002-03-28 07:25:05 51°13.688 2°55.906 16.14765 0.017135 0.090965  
2002-03-28 07:26:06 51°13.687 2°55.906 16.148805 0.017135 0.090968  
2002-03-28 07:27:05 51°13.688 2°55.907 16.153168 0.017135 0.090971  
2002-03-28 07:28:05 51°13.688 2°55.906 16.143886 0.017135 0.090976  
2002-03-28 07:29:05 51°13.688 2°55.907 16.151714 0.017135 0.090977  
2002-03-28 07:30:05 51°13.688 2°55.906 16.149661 0.017135 0.090979  
2002-03-28 07:31:06 51°13.687 2°55.906 16.160011 0.017135 0.090982  
2002-03-28 07:32:06 51°13.686 2°55.905 16.165528 0.017135 0.090983  
2002-03-28 07:33:05 51°13.689 2°55.907 16.160781 0.017135 0.090985  
2002-03-28 07:34:06 51°13.688 2°55.906 16.159327 0.017135 0.090988  
2002-03-28 07:35:06 51°13.689 2°55.905 16.173782 0.017135 0.09099  
2002-03-28 07:36:05 51°13.692 2°55.906 16.178613 0.017135 0.090991  
2002-03-28 07:37:06 51°13.689 2°55.905 16.172456 0.017135 0.090995  
2002-03-28 07:38:05 51°13.688 2°55.905 16.170959 0.017135 0.090997  
2002-03-28 07:39:05 51°13.687 2°55.904 16.184855 0.017135 0.091002  
2002-03-28 07:40:05 51°13.689 2°55.906 16.181734 0.017135 0.091008  
2002-03-28 07:41:05 51°13.688 2°55.905 16.187335 0.017135 0.091014  
2002-03-28 07:42:05 51°13.688 2°55.905 16.169848 0.017036 0.090518  
2002-03-28 07:43:06 51°13.687 2°55.905 16.185369 0.017135 0.091031  
2002-03-28 07:44:05 51°13.687 2°55.905 16.194474 0.017135 0.09104  
2002-03-28 07:45:05 51°13.686 2°55.904 16.195586 0.017036 0.090544  
2002-03-28 07:46:05 51°13.686 2°55.904 16.23144 0.017036 0.090552  
2002-03-28 07:47:06 51°13.696 2°55.843 16.178015 0.017036 0.090561  
2002-03-28 07:48:06 51°13.7 2°55.758 16.181649 0.017036 0.090568  
2002-03-28 07:49:05 51°13.706 2°55.721 16.031971 0.017036 0.090577  
2002-03-28 07:50:05 51°13.796 2°55.67 16.257668 0.017036 0.090583  
2002-03-28 07:51:05 51°13.931 2°55.564 16.278335 0.017036 0.090591  
2002-03-28 07:52:05 51°14.058 2°55.471 16.264287 0.017036 0.090598  
2002-03-28 07:53:05 51°14.163 2°55.384 16.194944 0.017036 0.090607  
2002-03-28 07:54:05 51°14.279 2°55.224 16.291911 0.017036 0.090615  
2002-03-28 07:55:05 51°14.38 2°55.011 16.189729 0.017036 0.090622  
2002-03-28 07:56:05 51°14.419 2°54.725 16.754387 0.017036 0.090632  
2002-03-28 07:57:05 51°14.377 2°54.415 16.245666 0.017036 0.09064  
2002-03-28 07:58:05 51°14.295 2°54.104 16.257454 0.017036 0.09065  
2002-03-28 07:59:05 51°14.21 2°53.774 9.615153 3.81835 28.494268  
2002-03-28 08:00:05 51°14.109 2°53.433 8.963411 3.326392 30.030065  
2002-03-28 08:01:05 51°13.991 2°53.094 8.847313 3.270311 29.994411  
2002-03-28 08:02:04 51°13.875 2°52.756 8.870177 3.305767 30.428712  
2002-03-28 08:03:05 51°13.754 2°52.404 8.858293 3.31979 30.614666  
2002-03-28 08:04:05 51°13.635 2°52.056 8.776283 3.334814 30.790925  
2002-03-28 08:05:05 51°13.516 2°51.707 8.791097 3.333212 30.787998  
2002-03-28 08:06:05 51°13.397 2°51.358 8.820716 3.350139 30.954225  
2002-03-28 08:07:05 51°13.278 2°51.007 8.851132 3.36897 31.134279  
2002-03-28 08:08:05 51°13.158 2°50.658 8.865643 3.382593 31.256642  
2002-03-28 08:09:05 51°13.039 2°50.308 8.910015 3.384395 31.265046  
2002-03-28 08:10:05 51°12.918 2°49.958 8.876667 3.393912 31.362562  
2002-03-28 08:11:05 51°12.796 2°49.61 8.871179 3.405532 31.491838  
2002-03-28 08:12:05 51°12.675 2°49.26 8.861443 3.401024 31.450668  
2002-03-28 08:13:05 51°12.552 2°48.911 8.858531 3.397017 31.417526  
2002-03-28 08:14:05 51°12.431 2°48.562 8.850178 3.396116 31.414789  
2002-03-28 08:15:05 51°12.306 2°48.218 8.849366 3.391207 31.368045  
2002-03-28 08:16:05 51°12.178 2°47.877 9.760869 3.399321 31.459275  
2002-03-28 08:17:05 51°12.051 2°47.537 9.720043 3.407936 31.561549  
2002-03-28 08:18:05 51°11.924 2°47.197 9.790943 3.407636 31.554097  
2002-03-28 08:19:05 51°11.797 2°46.857 9.948894 3.420057 31.661299  
2002-03-28 08:20:05 51°11.671 2°46.518 9.593117 3.425667 31.722583  
2002-03-28 08:21:05 51°11.544 2°46.18 9.550532 3.429975 31.778565  
2002-03-28 08:22:05 51°11.418 2°45.848 9.454308 3.437188 31.865955  
2002-03-28 08:23:04 51°11.296 2°45.523 9.659393 3.43308 31.832509  
2002-03-28 08:24:05 51°11.169 2°45.189 9.685507 3.431978 31.799165  
2002-03-28 08:25:05 51°11.044 2°44.858 9.821096 3.437888 31.841597  
2002-03-28 08:26:05 51°10.92 2°44.528 9.870694 3.443298 31.882521  
2002-03-28 08:27:05 51°10.799 2°44.2 9.49757 3.457022 32.014025  
2002-03-28 08:28:05 51°10.685 2°43.869 9.781814 3.470747 32.14184  
2002-03-28 08:29:05 51°10.569 2°43.544 9.8329 3.48347 32.26453  
2002-03-28 08:30:05 51°10.454 2°43.22 9.916076 3.494991 32.371888  
2002-03-28 08:31:05 51°10.339 2°42.899 9.643974 3.500902 32.428972  
2002-03-28 08:32:05 51°10.225 2°42.579 9.982399 3.501803 32.438249  
2002-03-28 08:33:05 51°10.122 2°42.25 8.92909 3.498898 32.424015  
2002-03-28 08:34:04 51°10.035 2°41.917 8.877765 3.496394 32.419867  
2002-03-28 08:35:05 51°9.978 2°41.556 8.883539 3.4994 32.465023  
2002-03-28 08:36:05 51°9.937 2°41.195 8.929281 3.503106 32.497234  
2002-03-28 08:37:05 51°9.902 2°40.827 8.977707 3.505611 32.514058  
2002-03-28 08:38:04 51°9.865 2°40.461 9.001811 3.508717 32.534073  
2002-03-28 08:39:05 51°9.826 2°40.078 8.93176 3.511522 32.550983  
2002-03-28 08:40:05 51°9.789 2°39.699 8.929567 3.515629 32.589537  
2002-03-28 08:41:05 51°9.751 2°39.32 8.965508 3.517533 32.611391  
2002-03-28 08:42:05 51°9.714 2°38.94 8.926468 3.518435 32.622929  
2002-03-28 08:43:06 51°9.676 2°38.553 8.922414 3.518034 32.620302  
2002-03-28 08:44:05 51°9.638 2°38.178 8.916167 3.52114 32.655303  
2002-03-28 08:45:05 51°9.6 2°37.796 8.91116 3.523444 32.680551  
2002-03-28 08:46:05 51°9.56 2°37.41 8.906962 3.524546 32.697175  
2002-03-28 08:47:05 51°9.522 2°37.025 8.896659 3.524947 32.706575  
2002-03-28 08:48:05 51°9.48 2°36.639 8.893319 3.525749 32.728399  
2002-03-28 08:49:05 51°9.436 2°36.251 8.906581 3.529256 32.763059  
2002-03-28 08:50:05 51°9.394 2°35.864 8.922844 3.538072 32.840407  
2002-03-28 08:51:05 51°9.351 2°35.479 8.925514 3.544184 32.892855  
2002-03-28 08:52:05 51°9.303 2°35.096 8.92127 3.546588 32.918415  
2002-03-28 08:53:05 51°9.255 2°34.713 8.929519 3.54769 32.929026  
2002-03-28 08:54:04 51°9.209 2°34.339 8.883157 3.548592 32.938328  
2002-03-28 08:55:05 51°9.161 2°33.952 8.877622 3.545687 32.947785  
2002-03-28 08:56:05 51°9.116 2°33.57 8.887928 3.548793 32.978343  
2002-03-28 08:57:05 51°9.207 2°33.26 8.874902 3.5525 33.011309  
2002-03-28 08:58:05 51°9.387 2°33.358 8.900046 3.559113 33.090291  
2002-03-28 08:59:05 51°9.561 2°33.551 9.720137 3.558612 33.09274  
2002-03-28 09:00:05 51°9.731 2°33.76 9.720514 3.554805 33.064059  
2002-03-28 09:01:05 51°9.886 2°33.994 9.637748 3.554805 33.063297  
2002-03-28 09:02:05 51°10.046 2°34.219 9.283154 3.556107 33.085155  
2002-03-28 09:03:05 51°10.206 2°34.443 9.3998 3.553803 33.062851  
2002-03-28 09:04:04 51°10.36 2°34.664 9.720137 3.554605 33.066563  
2002-03-28 09:05:05 51°10.52 2°34.893 9.805668 3.55761 33.093828  
2002-03-28 09:06:04 51°10.68 2°35.105 9.69988 3.558211 33.088598  
2002-03-28 09:07:05 51°10.848 2°35.319 9.394025 3.55781 33.076068  
2002-03-28 09:08:05 51°11.011 2°35.533 9.436995 3.55741 33.071926  
2002-03-28 09:09:05 51°11.175 2°35.745 10.029531 3.555907 33.048019  
2002-03-28 09:10:05 51°11.339 2°35.961 9.686167 3.553001 33.007359  
2002-03-28 09:11:05 51°11.502 2°36.175 9.59524 3.549594 32.971427  
2002-03-28 09:12:05 51°11.665 2°36.389 9.682444 3.549093 32.964737  
2002-03-28 09:13:05 51°11.829 2°36.601 9.20695 3.548292 32.962536  
2002-03-28 09:14:05 51°11.996 2°36.806 9.849825 3.54719 32.959508  
2002-03-28 09:15:05 51°12.166 2°37.005 9.922791 3.546889 32.967798  
2002-03-28 09:16:05 51°12.333 2°37.211 9.973766 3.546088 32.962557  
2002-03-28 09:17:05 51°12.5 2°37.416 10.066041 3.548593 32.975514  
2002-03-28 09:18:05 51°12.669 2°37.617 9.446551 3.551398 32.992326  
2002-03-28 09:19:05 51°12.835 2°37.821 9.58868 3.550095 32.981157  
2002-03-28 09:20:05 51°13.002 2°38.028 9.926876 3.546889 32.96248  
2002-03-28 09:21:05 51°13.169 2°38.235 9.889255 3.548092 32.980979  
2002-03-28 09:22:05 51°13.337 2°38.442 9.348467 3.54699 32.965794  
2002-03-28 09:23:05 51°13.505 2°38.651 10.000083 3.546288 32.963868  
2002-03-28 09:24:05 51°13.675 2°38.859 8.954213 3.545587 32.958902  
2002-03-28 09:25:05 51°13.845 2°39.065 8.875618 3.54739 32.977534  
2002-03-28 09:26:04 51°14.033 2°39.008 8.874615 3.550296 33.014406  
2002-03-28 09:27:05 51°14.117 2°38.688 8.934526 3.553603 33.051629  
2002-03-28 09:28:05 51°14.104 2°38.317 8.948684 3.556709 33.099771  
2002-03-28 09:29:05 51°14.055 2°37.942 8.804045 3.5521 33.077287  
2002-03-28 09:30:05 51°13.985 2°37.574 8.878051 3.540879 32.981734  
2002-03-28 09:31:05 51°13.915 2°37.206 8.797834 3.537973 32.951659  
2002-03-28 09:32:05 51°13.835 2°36.844 8.887499 3.537973 32.942524  
2002-03-28 09:33:05 51°13.744 2°36.489 8.825635 3.54148 32.970434  
2002-03-28 09:34:05 51°13.656 2°36.138 8.939007 3.547391 33.01864  
2002-03-28 09:35:05 51°13.562 2°35.794 8.927517 3.553703 33.078602  
2002-03-28 09:36:05 51°13.469 2°35.451 8.845929 3.556809 33.104627  
2002-03-28 09:37:05 51°13.365 2°35.118 8.850034 3.560015 33.137035  
2002-03-28 09:38:05 51°13.259 2°34.785 8.937386 3.559715 33.128573  
2002-03-28 09:39:05 51°13.155 2°34.459 8.912304 3.560115 33.127369  
2002-03-28 09:40:05 51°13.05 2°34.134 8.917693 3.560716 33.119072  
2002-03-28 09:41:05 51°12.946 2°33.81 8.999667 3.560416 33.10833  
2002-03-28 09:42:05 51°12.84 2°33.489 8.881916 3.562419 33.125991  
2002-03-28 09:43:05 51°12.734 2°33.167 8.910253 3.561217 33.11967  
2002-03-28 09:44:05 51°12.628 2°32.84 8.950495 3.562319 33.140232  
2002-03-28 09:45:05 51°12.522 2°32.513 8.907487 3.56292 33.142628  
2002-03-28 09:46:04 51°12.415 2°32.19 9.72513 3.563221 33.149558  
2002-03-28 09:47:05 51°12.307 2°31.855 9.570128 3.565125 33.169246  
2002-03-28 09:48:04 51°12.202 2°31.531 9.894328 3.564123 33.155825  
2002-03-28 09:49:05 51°12.094 2°31.195 10.051421 3.567028 33.178225  
2002-03-28 09:50:05 51°11.985 2°30.864 9.630579 3.568231 33.181479  
2002-03-28 09:51:05 51°11.877 2°30.539 10.223515 3.57805 33.271508  
2002-03-28 09:52:05 51°11.768 2°30.217 9.46859 3.583561 33.378478  
2002-03-28 09:53:05 51°11.662 2°29.895 9.484807 3.587068 33.416345  
2002-03-28 09:54:05 51°11.576 2°29.562 9.899355 3.590074 33.443626  
2002-03-28 09:55:05 51°11.494 2°29.229 9.695026 3.591878 33.466172  
2002-03-28 09:56:04 51°11.43 2°28.898 9.823918 3.592278 33.471097  
2002-03-28 09:57:05 51°11.375 2°28.56 9.614776 3.595785 33.493524  
2002-03-28 09:58:05 51°11.327 2°28.241 9.386639 3.598891 33.511014  
2002-03-28 09:59:05 51°11.291 2°27.918 9.806092 3.596787 33.484592  
2002-03-28 10:00:05 51°11.26 2°27.594 9.88169 3.598691 33.510485  
2002-03-28 10:01:05 51°11.236 2°27.268 9.673347 3.598991 33.508189  
2002-03-28 10:02:06 51°11.218 2°26.934 9.918658 3.601496 33.530263  
2002-03-28 10:03:05 51°11.204 2°26.611 9.306007 3.604001 33.571682  
2002-03-28 10:04:05 51°11.194 2°26.28 9.336812 3.604101 33.561883  
2002-03-28 10:05:05 51°11.188 2°25.949 10.070117 3.604302 33.57015  
2002-03-28 10:06:05 51°11.236 2°25.639 10.011011 3.60811 33.611148  
2002-03-28 10:07:05 51°11.414 2°25.473 9.662551 3.60841 33.630551  
2002-03-28 10:08:05 51°11.636 2°25.503 9.97203 3.608811 33.633154  
2002-03-28 10:09:05 51°11.858 2°25.48 9.662174 3.60811 33.638302  
2002-03-28 10:10:05 51°12.081 2°25.443 9.86106 3.607509 33.619651  
2002-03-28 10:11:05 51°12.306 2°25.441 9.725366 3.609512 33.618705  
2002-03-28 10:12:05 51°12.531 2°25.477 9.785343 3.612118 33.657338  
2002-03-28 10:13:05 51°12.745 2°25.589 8.935622 3.613721 33.685612  
2002-03-28 10:14:05 51°12.924 2°25.815 8.867648 3.617428 33.704614  
2002-03-28 10:15:05 51°13.119 2°26.007 8.926229 3.616527 33.715484  
2002-03-28 10:16:05 51°13.27 2°26.286 8.860584 3.615424 33.70172  
2002-03-28 10:17:06 51°13.4 2°26.606 8.856431 3.614923 33.687974  
2002-03-28 10:18:07 51°13.524 2°26.931 8.921127 3.6031 33.571631  
2002-03-28 10:19:06 51°13.656 2°27.232 8.874091 3.610415 33.665311  
2002-03-28 10:20:06 51°13.794 2°27.533 8.859629 3.609212 33.648179  
2002-03-28 10:21:07 51°13.932 2°27.84 8.92909 3.607809 33.626647  
2002-03-28 10:22:06 51°14.066 2°28.135 8.854235 3.604102 33.588215  
2002-03-28 10:23:06 51°14.205 2°28.433 8.855476 3.594182 33.481552  
2002-03-28 10:24:06 51°14.344 2°28.733 8.890982 3.591176 33.4535  
2002-03-28 10:25:06 51°14.483 2°29.036 8.854665 3.589673 33.440246  
2002-03-28 10:26:06 51°14.626 2°29.336 8.890648 3.587769 33.418212  
2002-03-28 10:27:06 51°14.768 2°29.641 9.009573 3.586166 33.40392  
2002-03-28 10:28:06 51°14.905 2°29.955 8.895132 3.584864 33.385806  
2002-03-28 10:29:07 51°15.045 2°30.276 8.929662 3.58306 33.37406  
2002-03-28 10:30:06 51°15.18 2°30.589 8.866836 3.582058 33.352138  
2002-03-28 10:31:06 51°15.318 2°30.908 8.866884 3.581256 33.339225  
2002-03-28 10:32:06 51°15.452 2°31.235 8.943107 3.580054 33.329086  
2002-03-28 10:33:07 51°15.592 2°31.565 8.88893 3.579954 33.328817  
2002-03-28 10:34:06 51°15.727 2°31.886 8.936814 3.578952 33.32844  
2002-03-28 10:35:06 51°15.863 2°32.215 8.94058 3.578752 33.320983  
2002-03-28 10:36:06 51°15.989 2°32.555 9.712365 3.578451 33.31326  
2002-03-28 10:37:06 51°16.099 2°32.91 9.614446 3.577249 33.310804  
2002-03-28 10:38:06 51°16.097 2°33.3 9.70624 3.575946 33.314231  
2002-03-28 10:39:06 51°15.996 2°33.669 9.869989 3.574544 33.318933  
2002-03-28 10:40:06 51°15.894 2°34.037 9.822977 3.574544 33.313546  
2002-03-28 10:41:06 51°15.798 2°34.402 9.204672 3.57234 33.29609  
2002-03-28 10:42:07 51°15.703 2°34.754 9.760351 3.570636 33.275365  
2002-03-28 10:43:06 51°15.681 2°35.085 9.8242 3.548293 33.024919  
2002-03-28 10:44:06 51°15.852 2°35.332 9.917297 3.523845 32.717055  
2002-03-28 10:45:07 51°16.022 2°35.605 10.088527 3.520339 32.678627  
2002-03-28 10:46:07 51°16.192 2°35.873 9.333164 3.513426 32.627635  
2002-03-28 10:47:07 51°16.364 2°36.137 9.242359 3.507215 32.577829  
2002-03-28 10:48:06 51°16.533 2°36.401 9.977238 3.502005 32.530832  
2002-03-28 10:49:07 51°16.709 2°36.676 9.739164 3.497697 32.488635  
2002-03-28 10:50:06 51°16.881 2°36.94 10.267531 3.49399 32.461627  
2002-03-28 10:51:06 51°17.053 2°37.211 9.595948 3.490885 32.429583  
2002-03-28 10:52:06 51°17.245 2°37.39 9.355526 3.489782 32.397282  
2002-03-28 10:53:06 51°17.377 2°37.144 9.683104 3.48818 32.406163  
2002-03-28 10:54:06 51°17.558 2°36.938 9.892543 3.491285 32.406052  
2002-03-28 10:55:06 51°17.73 2°36.724 9.919128 3.51002 32.63387  
2002-03-28 10:56:06 51°17.893 2°36.498 9.707936 3.521041 32.786321  
2002-03-28 10:57:06 51°18.065 2°36.295 9.283628 3.526953 32.8528  
2002-03-28 10:58:06 51°18.239 2°36.099 9.831912 3.531762 32.909427  
2002-03-28 10:59:06 51°18.414 2°35.895 9.678673 3.536671 32.95798  
2002-03-28 11:00:07 51°18.601 2°35.7 9.479654 3.540077 32.983345  
2002-03-28 11:01:07 51°18.786 2°35.51 9.633975 3.550397 33.06653  
2002-03-28 11:02:06 51°18.969 2°35.322 9.373239 3.55701 33.129637  
2002-03-28 11:03:06 51°19.158 2°35.451 8.894178 3.560616 33.154732  
2002-03-28 11:04:07 51°19.255 2°35.823 8.93505 3.562821 33.170657  
2002-03-28 11:05:07 51°19.367 2°36.181 8.94039 3.560416 33.171036  
2002-03-28 11:06:07 51°19.517 2°36.504 8.908775 3.560316 33.15851  
2002-03-28 11:07:06 51°19.676 2°36.808 8.862684 3.560416 33.158781  
2002-03-28 11:08:07 51°19.843 2°37.116 8.8125 3.560216 33.163599  
2002-03-28 11:09:07 51°20.013 2°37.41 8.877001 3.559715 33.167604  
2002-03-28 11:10:06 51°20.178 2°37.7 8.899807 3.560817 33.189754  
2002-03-28 11:11:07 51°20.347 2°37.999 8.847934 3.56232 33.222219  
2002-03-28 11:12:06 51°20.512 2°38.282 8.797165 3.562721 33.24098  
2002-03-28 11:13:07 51°20.681 2°38.574 8.777621 3.562321 33.236054  
2002-03-28 11:14:06 51°20.847 2°38.856 8.771503 3.559816 33.201626  
2002-03-28 11:15:07 51°21.019 2°39.146 8.844162 3.560918 33.216895  
2002-03-28 11:16:07 51°21.069 2°39.473 8.856956 3.559515 33.203886  
2002-03-28 11:17:06 51°20.995 2°39.821 8.83509 3.556609 33.175293  
2002-03-28 11:18:07 51°20.942 2°40.203 8.818328 3.552301 33.144427  
2002-03-28 11:19:06 51°20.88 2°40.567 8.746453 3.546791 33.100307  
2002-03-28 11:20:06 51°20.819 2°40.941 8.863352 3.54128 33.040096  
2002-03-28 11:21:07 51°20.765 2°41.326 8.797786 3.537072 32.999522  
2002-03-28 11:22:07 51°20.712 2°41.703 8.758119 3.515431 32.754025  
2002-03-28 11:23:06 51°20.657 2°42.078 8.788182 3.48227 32.420764  
2002-03-28 11:24:07 51°20.601 2°42.465 8.736458 3.487179 32.473779  
2002-03-28 11:25:07 51°20.551 2°42.839 8.73115 3.450312 32.107672  
2002-03-28 11:26:07 51°20.505 2°43.206 8.845929 3.406135 31.673037  
2002-03-28 11:27:06 51°20.457 2°43.565 8.727228 3.372478 31.340598  
2002-03-28 11:28:06 51°20.408 2°43.934 8.722971 3.371376 31.329969  
2002-03-28 11:29:07 51°20.358 2°44.308 8.792292 3.364064 31.248835  
2002-03-28 11:30:07 51°20.309 2°44.677 8.723114 3.363262 31.22973  
2002-03-28 11:31:06 51°20.262 2°45.044 8.803328 3.363362 31.221363  
2002-03-28 11:32:06 51°20.214 2°45.419 9.556719 3.365265 31.21061  
2002-03-28 11:33:07 51°20.16 2°45.802 9.644917 3.364464 31.21464  
2002-03-28 11:34:06 51°20.098 2°46.176 9.726732 3.369372 31.271649  
2002-03-28 11:35:06 51°20.031 2°46.555 9.045946 3.3853 31.485902  
2002-03-28 11:36:06 51°19.939 2°46.9 9.647275 3.406736 31.719648  
2002-03-28 11:37:07 51°19.763 2°46.859 9.870553 3.413848 31.730577  
2002-03-28 11:38:06 51°19.592 2°46.713 9.406474 3.360959 31.205289  
2002-03-28 11:39:06 51°19.415 2°46.563 8.989045 3.345033 31.079537  
2002-03-28 11:40:06 51°19.237 2°46.421 9.337144 3.342529 31.050866  
2002-03-28 11:41:07 51°19.055 2°46.278 9.393362 3.35565 31.186753  
2002-03-28 11:42:06 51°18.878 2°46.141 9.86905 3.36807 31.287208  
2002-03-28 11:43:06 51°18.699 2°45.992 9.788166 3.380391 31.385077  
2002-03-28 11:44:07 51°18.517 2°45.839 9.590285 3.390808 31.474891  
2002-03-28 11:45:07 51°18.334 2°45.692 9.722822 3.39792 31.521885  
2002-03-28 11:46:06 51°18.157 2°45.538 9.203817 3.408338 31.629847  
2002-03-28 11:47:06 51°17.98 2°45.38 9.636192 3.415551 31.718043  
2002-03-28 11:48:07 51°17.799 2°45.219 9.94941 3.421661 31.772198  
2002-03-28 11:49:07 51°17.617 2°45.071 9.846441 3.422262 31.768845  
2002-03-28 11:50:07 51°17.436 2°44.919 9.664202 3.427672 31.831928  
2002-03-28 11:51:07 51°17.254 2°44.769 9.426303 3.42677 31.841772  
2002-03-28 11:52:07 51°17.061 2°44.648 9.385692 3.427171 31.87687  
2002-03-28 11:53:07 51°16.867 2°44.526 9.803269 3.429876 31.897404  
2002-03-28 11:54:06 51°16.677 2°44.404 9.847992 3.433783 31.914091  
2002-03-28 11:55:07 51°16.484 2°44.265 9.826551 3.436787 31.908194  
2002-03-28 11:56:07 51°16.304 2°44.107 9.874548 3.442898 31.955668  
2002-03-28 11:57:07 51°16.124 2°43.95 9.386781 3.449009 32.003852  
2002-03-28 11:58:07 51°15.942 2°43.792 10.06009 3.456422 32.07874  
2002-03-28 11:59:07 51°15.76 2°43.635 10.102764 3.466841 32.191306  
2002-03-28 12:00:06 51°15.58 2°43.484 8.991379 3.47726 32.306199  
2002-03-28 12:01:07 51°15.393 2°43.326 8.961076 3.487679 32.397257  
2002-03-28 12:02:07 51°15.209 2°43.174 8.874377 3.495393 32.468609  
2002-03-28 12:03:07 51°15.026 2°43.022 9.033047 3.502405 32.513221  
2002-03-28 12:04:07 51°14.843 2°42.874 8.985901 3.514127 32.6439  
2002-03-28 12:05:07 51°14.66 2°42.723 8.959599 3.519337 32.689379  
2002-03-28 12:06:07 51°14.476 2°42.572 9.093666 3.52114 32.668834  
2002-03-28 12:07:06 51°14.295 2°42.425 8.914355 3.528854 32.731038  
2002-03-28 12:08:06 51°14.106 2°42.304 8.956263 3.539375 32.867461  
2002-03-28 12:09:07 51°13.963 2°42.535 9.001048 3.53717 32.832618  
2002-03-28 12:10:07 51°14.062 2°42.867 9.085819 3.54739 32.908508  
2002-03-28 12:11:07 51°14.198 2°43.203 8.95631 3.553301 32.958092  
2002-03-28 12:12:06 51°14.335 2°43.532 8.988997 3.553702 32.976629  
2002-03-28 12:13:07 51°14.474 2°43.876 8.947397 3.554503 32.985655  
2002-03-28 12:14:07 51°14.592 2°44.233 8.99238 3.555605 32.998541  
2002-03-28 12:15:07 51°14.713 2°44.588 9.029238 3.556207 33.002465  
2002-03-28 12:16:06 51°14.832 2°44.94 9.77259 3.55801 33.022587  
2002-03-28 12:17:07 51°14.954 2°45.301 9.984323 3.559713 33.04016  
2002-03-28 12:18:07 51°15.074 2°45.657 9.238183 3.560415 33.060324  
2002-03-28 12:19:06 51°15.166 2°46.017 9.267835 3.561517 33.078552  
2002-03-28 12:20:06 51°15.077 2°46.347 9.774237 3.563722 33.107407  
2002-03-28 12:21:07 51°14.894 2°46.29 9.762517 3.565625 33.120967  
2002-03-28 12:22:07 51°14.7 2°46.19 9.86106 3.566627 33.122926  
2002-03-28 12:23:07 51°14.506 2°46.059 10.089745 3.566226 33.123362  
2002-03-28 12:24:07 51°14.314 2°45.921 9.388202 3.560716 33.07256  
2002-03-28 12:25:07 51°14.12 2°45.791 10.347869 3.553001 32.992922  
2002-03-28 12:26:07 51°13.926 2°45.668 9.809196 3.545687 32.924267  
2002-03-28 12:27:07 51°13.733 2°45.544 9.988545 3.532862 32.79045  
2002-03-28 12:28:07 51°13.537 2°45.418 9.952977 3.533263 32.760645  
2002-03-28 12:29:07 51°13.341 2°45.297 9.488873 3.541478 32.818137  
2002-03-28 12:30:06 51°13.151 2°45.184 9.395871 3.550495 32.908747  
2002-03-28 12:31:07 51°12.954 2°45.069 10.208229 3.551296 32.897354  
2002-03-28 12:32:07 51°12.753 2°44.98 9.792589 3.546788 32.848678  
2002-03-28 12:33:07 51°12.568 2°45.095 10.02775 3.549293 32.868424  
2002-03-28 12:34:06 51°12.574 2°45.433 9.805104 3.555304 32.930303  
2002-03-28 12:35:07 51°12.703 2°45.768 9.465422 3.556206 32.925228  
2002-03-28 12:36:07 51°12.823 2°46.104 9.970623 3.551697 32.872803  
2002-03-28 12:37:07 51°12.941 2°46.441 10.20014 3.54288 32.781373  
2002-03-28 12:38:07 51°13.052 2°46.782 9.80214 3.533963 32.688955  
2002-03-28 12:39:07 51°13.164 2°47.124 10.081501 3.525948 32.61407  
2002-03-28 12:40:07 51°13.276 2°47.466 9.55601 3.518233 32.528835  
2002-03-28 12:41:07 51°13.388 2°47.808 10.101125 3.514125 32.476966  
2002-03-28 12:42:07 51°13.492 2°48.155 10.17788 3.510919 32.437363  
2002-03-28 12:43:07 51°13.597 2°48.5 9.152899 3.507513 32.397952  
2002-03-28 12:44:07 51°13.703 2°48.845 9.155227 3.502503 32.338413  
2002-03-28 12:45:06 51°13.81 2°49.181 9.115683 3.496492 32.270865  
2002-03-28 12:46:07 51°13.912 2°49.536 9.082965 3.488477 32.19094  
2002-03-28 12:47:07 51°14.013 2°49.884 9.142635 3.480463 32.108092  
2002-03-28 12:48:07 51°14.115 2°50.231 9.16606 3.467539 31.989672  
2002-03-28 12:49:07 51°14.216 2°50.579 9.042472 3.457722 31.903031  
2002-03-28 12:50:07 51°14.317 2°50.927 9.076495 3.451711 31.848049  
2002-03-28 12:51:07 51°14.419 2°51.276 9.06874 3.448205 31.817249  
2002-03-28 12:52:07 51°14.52 2°51.624 9.066694 3.444098 31.780291  
2002-03-28 12:53:07 51°14.601 2°51.985 9.122719 3.440491 31.744816  
2002-03-28 12:54:07 51°14.666 2°52.352 9.001096 3.435082 31.706883  
2002-03-28 12:55:07 51°14.706 2°52.724 8.994857 3.431977 31.677984  
2002-03-28 12:56:07 51°14.708 2°53.103 9.097043 3.425666 31.615528  
2002-03-28 12:57:07 51°14.652 2°53.466 9.056892 3.432477 31.655507  
2002-03-28 12:58:07 51°14.616 2°53.838 9.141494 3.446001 31.770639  
2002-03-28 12:59:07 51°14.651 2°54.22 9.648878 3.448806 31.803715  
2002-03-28 13:00:07 51°14.736 2°54.522 9.327193 3.447804 31.823362  
2002-03-28 13:01:07 51°14.75 2°54.738 10.136893 3.445701 31.799623  
2002-03-28 13:02:07 51°14.734 2°54.879 10.097051 3.442595 31.772918  
2002-03-28 13:03:07 51°14.696 2°54.921 9.939646 3.434681 31.690416  
2002-03-28 13:04:07 51°14.693 2°54.942 10.097051 3.431275 31.662808  
2002-03-28 13:05:06 51°14.695 2°54.96 9.448822 3.426867 31.612601  
2002-03-28 13:06:07 51°14.69 2°54.971 10.03375 3.425465 31.599696  
2002-03-28 13:07:07 51°14.633 2°54.961 10.120229 3.423061 31.574364  
2002-03-28 13:08:06 51°14.527 2°54.962 9.681171 3.419855 31.519867  
2002-03-28 13:09:07 51°14.41 2°55.02 10.075505 3.409938 31.411278  
2002-03-28 13:10:07 51°14.337 2°55.12 10.092461 3.37027 30.974345  
2002-03-28 13:11:07 51°14.274 2°55.236 9.651943 3.106384 28.296807  
2002-03-28 13:12:06 51°14.205 2°55.34 10.175915 3.06974 27.967223  
2002-03-28 13:13:06 51°14.12 2°55.416 10.388071 3.02639 27.493637  
2002-03-28 13:14:07 51°14.019 2°55.487 10.270427 2.982943 27.06636  
2002-03-28 13:15:06 51°13.901 2°55.577 10.100235 2.922585 26.449573  
2002-03-28 13:16:06 51°13.75 2°55.708 9.120009 2.873442 25.973385